sensor_id;sensor_type;location;lat;lon;timestamp;P1;durP1;ratioP1;P2;durP2;ratioP2
67768;SDS011;54569;52.018;5.584;2022-08-04T00:01:07;8.00;;;5.05;;
67768;SDS011;54569;52.018;5.584;2022-08-04T00:03:40;9.05;;;5.65;;
67768;SDS011;54569;52.018;5.584;2022-08-04T00:06:21;9.07;;;5.18;;
67768;SDS011;54569;52.018;5.584;2022-08-04T00:08:55;5.50;;;4.88;;
67768;SDS011;54569;52.018;5.584;2022-08-04T00:11:25;6.72;;;5.07;;
67768;SDS011;54569;52.018;5.584;2022-08-04T00:14:13;9.02;;;5.65;;
67768;SDS011;54569;52.018;5.584;2022-08-04T00:16:41;7.03;;;6.03;;
67768;SDS011;54569;52.018;5.584;2022-08-04T00:19:16;7.97;;;5.80;;
67768;SDS011;54569;52.018;5.584;2022-08-04T00:21:53;8.85;;;5.40;;
67768;SDS011;54569;52.018;5.584;2022-08-04T00:24:23;8.52;;;5.90;;
67768;SDS011;54569;52.018;5.584;2022-08-04T00:26:51;8.25;;;5.80;;
67768;SDS011;54569;52.018;5.584;2022-08-04T00:29:17;10.50;;;6.25;;
67768;SDS011;54569;52.018;5.584;2022-08-04T00:31:44;7.30;;;5.10;;
67768;SDS011;54569;52.018;5.584;2022-08-04T00:34:11;6.35;;;5.63;;
67768;SDS011;54569;52.018;5.584;2022-08-04T00:36:39;7.00;;;5.50;;
67768;SDS011;54569;52.018;5.584;2022-08-04T00:39:07;7.72;;;5.22;;
67768;SDS011;54569;52.018;5.584;2022-08-04T00:44:15;5.95;;;5.35;;
67768;SDS011;54569;52.018;5.584;2022-08-04T00:51:59;8.00;;;4.90;;
67768;SDS011;54569;52.018;5.584;2022-08-04T00:54:37;5.38;;;4.57;;
67768;SDS011;54569;52.018;5.584;2022-08-04T01:00:17;6.72;;;4.82;;
67768;SDS011;54569;52.018;5.584;2022-08-04T01:05:14;5.57;;;5.00;;
67768;SDS011;54569;52.018;5.584;2022-08-04T01:10:22;6.93;;;4.93;;
67768;SDS011;54569;52.018;5.584;2022-08-04T01:15:52;6.28;;;5.03;;
67768;SDS011;54569;52.018;5.584;2022-08-04T01:18:32;5.65;;;4.70;;
67768;SDS011;54569;52.018;5.584;2022-08-04T01:29:55;5.60;;;4.47;;
67768;SDS011;54569;52.018;5.584;2022-08-04T01:32:36;7.72;;;4.45;;
67768;SDS011;54569;52.018;5.584;2022-08-04T01:35:07;5.68;;;4.85;;
67768;SDS011;54569;52.018;5.584;2022-08-04T01:40:22;7.28;;;5.13;;
67768;SDS011;54569;52.018;5.584;2022-08-04T01:42:51;7.15;;;4.97;;
67768;SDS011;54569;52.018;5.584;2022-08-04T01:45:19;7.38;;;5.10;;
67768;SDS011;54569;52.018;5.584;2022-08-04T01:47:52;9.07;;;5.28;;
67768;SDS011;54569;52.018;5.584;2022-08-04T01:50:19;7.28;;;4.38;;
67768;SDS011;54569;52.018;5.584;2022-08-04T01:52:46;7.88;;;5.00;;
67768;SDS011;54569;52.018;5.584;2022-08-04T01:55:13;8.15;;;4.47;;
67768;SDS011;54569;52.018;5.584;2022-08-04T01:57:46;7.07;;;5.05;;
67768;SDS011;54569;52.018;5.584;2022-08-04T02:00:15;7.82;;;4.70;;
67768;SDS011;54569;52.018;5.584;2022-08-04T02:02:43;7.50;;;4.32;;
67768;SDS011;54569;52.018;5.584;2022-08-04T02:05:10;4.88;;;4.47;;
67768;SDS011;54569;52.018;5.584;2022-08-04T02:13:14;7.43;;;4.40;;
67768;SDS011;54569;52.018;5.584;2022-08-04T02:16:04;7.55;;;4.30;;
67768;SDS011;54569;52.018;5.584;2022-08-04T02:18:45;6.15;;;5.07;;
67768;SDS011;54569;52.018;5.584;2022-08-04T02:21:33;7.45;;;5.50;;
67768;SDS011;54569;52.018;5.584;2022-08-04T02:24:02;7.97;;;5.68;;
67768;SDS011;54569;52.018;5.584;2022-08-04T02:26:32;7.82;;;5.65;;
67768;SDS011;54569;52.018;5.584;2022-08-04T02:31:47;7.28;;;5.78;;
67768;SDS011;54569;52.018;5.584;2022-08-04T02:34:22;6.20;;;5.60;;
67768;SDS011;54569;52.018;5.584;2022-08-04T02:36:52;6.88;;;6.18;;
67768;SDS011;54569;52.018;5.584;2022-08-04T02:39:19;6.72;;;6.13;;
67768;SDS011;54569;52.018;5.584;2022-08-04T02:41:46;7.78;;;6.57;;
67768;SDS011;54569;52.018;5.584;2022-08-04T02:44:13;6.55;;;5.95;;
67768;SDS011;54569;52.018;5.584;2022-08-04T02:46:46;7.45;;;6.45;;
67768;SDS011;54569;52.018;5.584;2022-08-04T02:49:14;10.00;;;5.97;;
67768;SDS011;54569;52.018;5.584;2022-08-04T02:51:44;12.75;;;6.88;;
67768;SDS011;54569;52.018;5.584;2022-08-04T02:54:11;10.38;;;6.57;;
67768;SDS011;54569;52.018;5.584;2022-08-04T02:56:41;9.73;;;6.63;;
67768;SDS011;54569;52.018;5.584;2022-08-04T02:59:10;8.38;;;6.40;;
67768;SDS011;54569;52.018;5.584;2022-08-04T03:01:38;9.93;;;6.10;;
67768;SDS011;54569;52.018;5.584;2022-08-04T03:06:39;7.13;;;5.88;;
67768;SDS011;54569;52.018;5.584;2022-08-04T03:17:20;7.32;;;6.03;;
67768;SDS011;54569;52.018;5.584;2022-08-04T03:26:09;7.85;;;5.18;;
67768;SDS011;54569;52.018;5.584;2022-08-04T03:37:27;10.63;;;5.53;;
67768;SDS011;54569;52.018;5.584;2022-08-04T03:40:32;6.43;;;5.53;;
67768;SDS011;54569;52.018;5.584;2022-08-04T03:48:52;13.88;;;5.20;;
67768;SDS011;54569;52.018;5.584;2022-08-04T03:51:26;8.40;;;5.65;;
67768;SDS011;54569;52.018;5.584;2022-08-04T03:54:43;9.15;;;5.90;;
67768;SDS011;54569;52.018;5.584;2022-08-04T04:00:39;8.82;;;5.45;;
67768;SDS011;54569;52.018;5.584;2022-08-04T04:06:20;10.93;;;6.15;;
67768;SDS011;54569;52.018;5.584;2022-08-04T04:09:27;7.10;;;4.82;;
67768;SDS011;54569;52.018;5.584;2022-08-04T04:15:18;6.65;;;5.18;;
67768;SDS011;54569;52.018;5.584;2022-08-04T04:18:24;6.50;;;5.47;;
67768;SDS011;54569;52.018;5.584;2022-08-04T04:23:55;12.70;;;5.75;;
67768;SDS011;54569;52.018;5.584;2022-08-04T04:26:36;19.25;;;6.70;;
67768;SDS011;54569;52.018;5.584;2022-08-04T04:29:19;18.05;;;6.10;;
67768;SDS011;54569;52.018;5.584;2022-08-04T04:40:57;7.55;;;5.40;;
67768;SDS011;54569;52.018;5.584;2022-08-04T04:43:39;8.10;;;5.30;;
67768;SDS011;54569;52.018;5.584;2022-08-04T04:51:42;8.93;;;5.80;;
67768;SDS011;54569;52.018;5.584;2022-08-04T04:54:40;8.50;;;5.30;;
67768;SDS011;54569;52.018;5.584;2022-08-04T04:57:24;6.05;;;5.43;;
67768;SDS011;54569;52.018;5.584;2022-08-04T04:59:55;8.82;;;6.68;;
67768;SDS011;54569;52.018;5.584;2022-08-04T05:05:26;10.15;;;5.80;;
67768;SDS011;54569;52.018;5.584;2022-08-04T05:21:51;8.57;;;6.60;;
67768;SDS011;54569;52.018;5.584;2022-08-04T05:24:24;6.80;;;5.78;;
67768;SDS011;54569;52.018;5.584;2022-08-04T05:26:52;10.15;;;6.28;;
67768;SDS011;54569;52.018;5.584;2022-08-04T05:29:28;8.15;;;6.38;;
67768;SDS011;54569;52.018;5.584;2022-08-04T05:31:58;7.07;;;5.72;;
67768;SDS011;54569;52.018;5.584;2022-08-04T05:34:28;9.60;;;6.22;;
67768;SDS011;54569;52.018;5.584;2022-08-04T05:36:58;8.50;;;6.30;;
67768;SDS011;54569;52.018;5.584;2022-08-04T05:39:30;9.77;;;6.82;;
67768;SDS011;54569;52.018;5.584;2022-08-04T05:42:01;10.40;;;6.47;;
67768;SDS011;54569;52.018;5.584;2022-08-04T05:44:28;10.48;;;6.93;;
67768;SDS011;54569;52.018;5.584;2022-08-04T05:46:56;10.43;;;6.60;;
67768;SDS011;54569;52.018;5.584;2022-08-04T05:49:24;14.20;;;8.02;;
67768;SDS011;54569;52.018;5.584;2022-08-04T05:51:54;15.00;;;7.63;;
67768;SDS011;54569;52.018;5.584;2022-08-04T05:54:23;14.43;;;7.65;;
67768;SDS011;54569;52.018;5.584;2022-08-04T05:56:50;13.45;;;7.68;;
67768;SDS011;54569;52.018;5.584;2022-08-04T05:59:17;11.55;;;7.53;;
67768;SDS011;54569;52.018;5.584;2022-08-04T06:01:44;14.40;;;7.28;;
67768;SDS011;54569;52.018;5.584;2022-08-04T06:04:11;16.30;;;7.60;;
67768;SDS011;54569;52.018;5.584;2022-08-04T06:06:38;10.18;;;7.45;;
67768;SDS011;54569;52.018;5.584;2022-08-04T06:09:05;13.30;;;7.80;;
67768;SDS011;54569;52.018;5.584;2022-08-04T06:11:31;12.00;;;6.68;;
67768;SDS011;54569;52.018;5.584;2022-08-04T06:14:00;10.00;;;7.47;;
67768;SDS011;54569;52.018;5.584;2022-08-04T06:16:32;13.27;;;8.00;;
67768;SDS011;54569;52.018;5.584;2022-08-04T06:19:05;10.48;;;7.25;;
67768;SDS011;54569;52.018;5.584;2022-08-04T06:21:33;10.07;;;7.22;;
67768;SDS011;54569;52.018;5.584;2022-08-04T06:24:03;10.40;;;7.70;;
67768;SDS011;54569;52.018;5.584;2022-08-04T06:26:34;14.07;;;7.43;;
67768;SDS011;54569;52.018;5.584;2022-08-04T06:29:02;12.25;;;7.47;;
67768;SDS011;54569;52.018;5.584;2022-08-04T06:31:28;13.63;;;7.93;;
67768;SDS011;54569;52.018;5.584;2022-08-04T06:34:07;12.52;;;7.95;;
67768;SDS011;54569;52.018;5.584;2022-08-04T06:36:35;14.25;;;7.78;;
67768;SDS011;54569;52.018;5.584;2022-08-04T06:39:03;15.05;;;7.90;;
67768;SDS011;54569;52.018;5.584;2022-08-04T06:41:29;10.60;;;7.85;;
67768;SDS011;54569;52.018;5.584;2022-08-04T06:43:58;15.20;;;8.50;;
67768;SDS011;54569;52.018;5.584;2022-08-04T06:46:26;15.50;;;8.02;;
67768;SDS011;54569;52.018;5.584;2022-08-04T06:48:53;12.40;;;8.15;;
67768;SDS011;54569;52.018;5.584;2022-08-04T06:51:20;12.27;;;8.85;;
67768;SDS011;54569;52.018;5.584;2022-08-04T06:53:47;11.20;;;7.70;;
67768;SDS011;54569;52.018;5.584;2022-08-04T06:56:16;11.90;;;7.65;;
67768;SDS011;54569;52.018;5.584;2022-08-04T06:58:44;12.15;;;8.05;;
67768;SDS011;54569;52.018;5.584;2022-08-04T07:01:11;11.65;;;7.38;;
67768;SDS011;54569;52.018;5.584;2022-08-04T07:03:39;14.45;;;7.78;;
67768;SDS011;54569;52.018;5.584;2022-08-04T07:06:05;14.63;;;7.75;;
67768;SDS011;54569;52.018;5.584;2022-08-04T07:08:31;8.13;;;6.80;;
67768;SDS011;54569;52.018;5.584;2022-08-04T07:10:59;9.65;;;7.32;;
67768;SDS011;54569;52.018;5.584;2022-08-04T07:13:26;9.73;;;6.38;;
67768;SDS011;54569;52.018;5.584;2022-08-04T07:15:52;11.48;;;6.18;;
67768;SDS011;54569;52.018;5.584;2022-08-04T07:18:19;9.48;;;5.68;;
67768;SDS011;54569;52.018;5.584;2022-08-04T07:20:45;10.45;;;5.50;;
67768;SDS011;54569;52.018;5.584;2022-08-04T07:23:13;14.65;;;5.50;;
67768;SDS011;54569;52.018;5.584;2022-08-04T07:25:44;6.22;;;4.97;;
67768;SDS011;54569;52.018;5.584;2022-08-04T07:28:18;9.70;;;5.18;;
67768;SDS011;54569;52.018;5.584;2022-08-04T07:30:46;8.15;;;5.32;;
67768;SDS011;54569;52.018;5.584;2022-08-04T07:33:13;7.55;;;5.10;;
67768;SDS011;54569;52.018;5.584;2022-08-04T07:35:40;6.00;;;4.85;;
67768;SDS011;54569;52.018;5.584;2022-08-04T07:38:06;9.40;;;5.13;;
67768;SDS011;54569;52.018;5.584;2022-08-04T07:40:32;6.28;;;5.20;;
67768;SDS011;54569;52.018;5.584;2022-08-04T07:43:00;6.18;;;4.65;;
67768;SDS011;54569;52.018;5.584;2022-08-04T07:45:26;11.57;;;4.80;;
67768;SDS011;54569;52.018;5.584;2022-08-04T07:47:52;5.43;;;3.67;;
67768;SDS011;54569;52.018;5.584;2022-08-04T07:50:18;8.25;;;4.00;;
67768;SDS011;54569;52.018;5.584;2022-08-04T07:52:44;7.00;;;3.53;;
67768;SDS011;54569;52.018;5.584;2022-08-04T07:55:11;7.13;;;4.25;;
67768;SDS011;54569;52.018;5.584;2022-08-04T07:57:38;5.97;;;4.00;;
67768;SDS011;54569;52.018;5.584;2022-08-04T08:00:04;10.63;;;4.55;;
67768;SDS011;54569;52.018;5.584;2022-08-04T08:02:36;7.05;;;4.38;;
67768;SDS011;54569;52.018;5.584;2022-08-04T08:05:03;4.90;;;3.72;;
67768;SDS011;54569;52.018;5.584;2022-08-04T08:07:29;7.30;;;4.07;;
67768;SDS011;54569;52.018;5.584;2022-08-04T08:09:55;8.60;;;3.50;;
67768;SDS011;54569;52.018;5.584;2022-08-04T08:12:20;7.18;;;3.33;;
67768;SDS011;54569;52.018;5.584;2022-08-04T08:14:47;5.63;;;2.75;;
67768;SDS011;54569;52.018;5.584;2022-08-04T08:17:13;6.15;;;2.83;;
67768;SDS011;54569;52.018;5.584;2022-08-04T08:19:38;6.55;;;2.83;;
67768;SDS011;54569;52.018;5.584;2022-08-04T08:22:04;6.88;;;3.25;;
67768;SDS011;54569;52.018;5.584;2022-08-04T08:24:32;5.50;;;2.70;;
67768;SDS011;54569;52.018;5.584;2022-08-04T08:27:00;6.45;;;2.75;;
67768;SDS011;54569;52.018;5.584;2022-08-04T08:29:28;6.32;;;2.83;;
67768;SDS011;54569;52.018;5.584;2022-08-04T08:31:54;4.28;;;2.38;;
67768;SDS011;54569;52.018;5.584;2022-08-04T08:34:21;5.28;;;2.75;;
67768;SDS011;54569;52.018;5.584;2022-08-04T08:36:56;6.47;;;2.58;;
67768;SDS011;54569;52.018;5.584;2022-08-04T08:39:30;6.68;;;2.67;;
67768;SDS011;54569;52.018;5.584;2022-08-04T08:47:54;4.93;;;3.15;;
67768;SDS011;54569;52.018;5.584;2022-08-04T09:02:48;6.10;;;2.63;;
67768;SDS011;54569;52.018;5.584;2022-08-04T09:10:48;6.07;;;2.75;;
67768;SDS011;54569;52.018;5.584;2022-08-04T09:15:58;7.43;;;2.55;;
67768;SDS011;54569;52.018;5.584;2022-08-04T09:18:36;9.80;;;2.85;;
67768;SDS011;54569;52.018;5.584;2022-08-04T09:24:18;5.72;;;2.28;;
67768;SDS011;54569;52.018;5.584;2022-08-04T09:26:59;5.10;;;2.40;;
67768;SDS011;54569;52.018;5.584;2022-08-04T09:32:29;6.30;;;2.50;;
67768;SDS011;54569;52.018;5.584;2022-08-04T09:35:09;7.82;;;2.45;;
67768;SDS011;54569;52.018;5.584;2022-08-04T09:40:46;8.73;;;2.55;;
67768;SDS011;54569;52.018;5.584;2022-08-04T09:49:59;4.13;;;2.00;;
67768;SDS011;54569;52.018;5.584;2022-08-04T10:00:50;5.07;;;1.95;;
67768;SDS011;54569;52.018;5.584;2022-08-04T10:03:25;5.40;;;2.40;;
67768;SDS011;54569;52.018;5.584;2022-08-04T10:06:04;8.00;;;2.50;;
67768;SDS011;54569;52.018;5.584;2022-08-04T10:11:20;6.97;;;2.63;;
67768;SDS011;54569;52.018;5.584;2022-08-04T10:14:00;5.13;;;2.10;;
67768;SDS011;54569;52.018;5.584;2022-08-04T10:19:27;4.57;;;2.30;;
67768;SDS011;54569;52.018;5.584;2022-08-04T10:27:37;4.90;;;2.60;;
67768;SDS011;54569;52.018;5.584;2022-08-04T10:30:05;5.70;;;2.28;;
67768;SDS011;54569;52.018;5.584;2022-08-04T10:32:49;7.28;;;2.35;;
67768;SDS011;54569;52.018;5.584;2022-08-04T10:38:37;5.97;;;2.47;;
67768;SDS011;54569;52.018;5.584;2022-08-04T10:41:14;5.70;;;2.20;;
67768;SDS011;54569;52.018;5.584;2022-08-04T10:43:51;4.43;;;2.30;;
67768;SDS011;54569;52.018;5.584;2022-08-04T10:46:53;3.08;;;1.90;;
67768;SDS011;54569;52.018;5.584;2022-08-04T10:49:26;6.43;;;1.98;;
67768;SDS011;54569;52.018;5.584;2022-08-04T10:54:46;7.45;;;2.10;;
67768;SDS011;54569;52.018;5.584;2022-08-04T11:00:13;3.22;;;2.00;;
67768;SDS011;54569;52.018;5.584;2022-08-04T11:07:39;3.22;;;1.50;;
67768;SDS011;54569;52.018;5.584;2022-08-04T11:10:07;5.25;;;2.05;;
67768;SDS011;54569;52.018;5.584;2022-08-04T11:12:33;5.00;;;2.03;;
67768;SDS011;54569;52.018;5.584;2022-08-04T11:15:22;3.25;;;1.73;;
67768;SDS011;54569;52.018;5.584;2022-08-04T11:17:51;2.60;;;1.95;;
67768;SDS011;54569;52.018;5.584;2022-08-04T11:20:32;5.18;;;2.13;;
67768;SDS011;54569;52.018;5.584;2022-08-04T11:23:05;5.45;;;1.92;;
67768;SDS011;54569;52.018;5.584;2022-08-04T11:28:41;4.03;;;1.83;;
67768;SDS011;54569;52.018;5.584;2022-08-04T11:31:24;3.25;;;1.80;;
67768;SDS011;54569;52.018;5.584;2022-08-04T11:34:03;5.45;;;2.22;;
67768;SDS011;54569;52.018;5.584;2022-08-04T11:36:40;5.20;;;1.98;;
67768;SDS011;54569;52.018;5.584;2022-08-04T11:39:44;3.92;;;1.92;;
67768;SDS011;54569;52.018;5.584;2022-08-04T11:42:15;5.03;;;1.83;;
67768;SDS011;54569;52.018;5.584;2022-08-04T11:47:27;3.80;;;2.00;;
67768;SDS011;54569;52.018;5.584;2022-08-04T11:53:08;2.47;;;1.95;;
67768;SDS011;54569;52.018;5.584;2022-08-04T11:55:41;5.70;;;2.80;;
67768;SDS011;54569;52.018;5.584;2022-08-04T11:58:08;4.60;;;2.05;;
67768;SDS011;54569;52.018;5.584;2022-08-04T12:00:34;3.30;;;2.08;;
67768;SDS011;54569;52.018;5.584;2022-08-04T12:05:44;4.50;;;2.50;;
67768;SDS011;54569;52.018;5.584;2022-08-04T12:08:28;6.90;;;2.75;;
67768;SDS011;54569;52.018;5.584;2022-08-04T12:11:24;3.05;;;2.67;;
67768;SDS011;54569;52.018;5.584;2022-08-04T12:16:59;4.30;;;2.60;;
67768;SDS011;54569;52.018;5.584;2022-08-04T12:19:45;6.65;;;2.53;;
67768;SDS011;54569;52.018;5.584;2022-08-04T12:22:17;4.38;;;2.88;;
67768;SDS011;54569;52.018;5.584;2022-08-04T12:24:48;5.65;;;2.67;;
67768;SDS011;54569;52.018;5.584;2022-08-04T12:27:30;5.05;;;2.80;;
67768;SDS011;54569;52.018;5.584;2022-08-04T12:30:00;2.95;;;2.38;;
67768;SDS011;54569;52.018;5.584;2022-08-04T12:32:44;3.58;;;2.30;;
67768;SDS011;54569;52.018;5.584;2022-08-04T12:38:05;5.13;;;2.63;;
67768;SDS011;54569;52.018;5.584;2022-08-04T12:40:41;3.25;;;2.38;;
67768;SDS011;54569;52.018;5.584;2022-08-04T12:43:25;3.80;;;2.25;;
67768;SDS011;54569;52.018;5.584;2022-08-04T12:46:09;4.72;;;2.65;;
67768;SDS011;54569;52.018;5.584;2022-08-04T12:48:44;3.58;;;2.75;;
67768;SDS011;54569;52.018;5.584;2022-08-04T12:51:11;4.57;;;2.60;;
67768;SDS011;54569;52.018;5.584;2022-08-04T12:53:41;7.03;;;2.47;;
67768;SDS011;54569;52.018;5.584;2022-08-04T12:56:21;7.50;;;2.55;;
67768;SDS011;54569;52.018;5.584;2022-08-04T12:58:51;5.43;;;2.70;;
67768;SDS011;54569;52.018;5.584;2022-08-04T13:01:19;3.17;;;2.08;;
67768;SDS011;54569;52.018;5.584;2022-08-04T13:04:00;4.25;;;2.95;;
67768;SDS011;54569;52.018;5.584;2022-08-04T13:06:34;8.02;;;3.17;;
67768;SDS011;54569;52.018;5.584;2022-08-04T13:09:03;4.55;;;3.45;;
67768;SDS011;54569;52.018;5.584;2022-08-04T13:11:33;6.30;;;2.70;;
67768;SDS011;54569;52.018;5.584;2022-08-04T13:14:01;3.58;;;2.55;;
67768;SDS011;54569;52.018;5.584;2022-08-04T13:16:29;4.00;;;2.58;;
67768;SDS011;54569;52.018;5.584;2022-08-04T13:18:56;4.95;;;2.55;;
67768;SDS011;54569;52.018;5.584;2022-08-04T13:21:23;4.60;;;2.50;;
67768;SDS011;54569;52.018;5.584;2022-08-04T13:23:54;5.30;;;2.58;;
67768;SDS011;54569;52.018;5.584;2022-08-04T13:26:22;5.85;;;2.22;;
67768;SDS011;54569;52.018;5.584;2022-08-04T13:28:51;2.40;;;2.17;;
67768;SDS011;54569;52.018;5.584;2022-08-04T13:31:19;6.35;;;2.53;;
67768;SDS011;54569;52.018;5.584;2022-08-04T13:33:47;5.05;;;2.63;;
67768;SDS011;54569;52.018;5.584;2022-08-04T13:36:16;5.45;;;2.75;;
67768;SDS011;54569;52.018;5.584;2022-08-04T13:38:50;5.28;;;2.40;;
67768;SDS011;54569;52.018;5.584;2022-08-04T13:41:19;3.72;;;1.95;;
67768;SDS011;54569;52.018;5.584;2022-08-04T13:43:47;2.83;;;1.75;;
67768;SDS011;54569;52.018;5.584;2022-08-04T13:46:18;4.85;;;2.30;;
67768;SDS011;54569;52.018;5.584;2022-08-04T13:48:46;4.90;;;2.08;;
67768;SDS011;54569;52.018;5.584;2022-08-04T13:51:14;4.22;;;2.28;;
67768;SDS011;54569;52.018;5.584;2022-08-04T13:53:42;2.25;;;1.90;;
67768;SDS011;54569;52.018;5.584;2022-08-04T13:56:08;3.58;;;1.90;;
67768;SDS011;54569;52.018;5.584;2022-08-04T13:58:38;4.13;;;1.67;;
67768;SDS011;54569;52.018;5.584;2022-08-04T14:01:15;4.15;;;2.00;;
67768;SDS011;54569;52.018;5.584;2022-08-04T14:03:51;2.63;;;1.50;;
67768;SDS011;54569;52.018;5.584;2022-08-04T14:06:24;4.57;;;1.80;;
67768;SDS011;54569;52.018;5.584;2022-08-04T14:08:55;2.13;;;1.58;;
67768;SDS011;54569;52.018;5.584;2022-08-04T14:14:03;2.80;;;1.50;;
67768;SDS011;54569;52.018;5.584;2022-08-04T14:25:11;4.75;;;1.85;;
67768;SDS011;54569;52.018;5.584;2022-08-04T14:32:56;4.15;;;2.22;;
67768;SDS011;54569;52.018;5.584;2022-08-04T14:35:23;4.30;;;2.03;;
67768;SDS011;54569;52.018;5.584;2022-08-04T14:37:53;2.95;;;1.90;;
67768;SDS011;54569;52.018;5.584;2022-08-04T14:40:24;4.85;;;1.90;;
67768;SDS011;54569;52.018;5.584;2022-08-04T14:42:58;3.08;;;1.80;;
67768;SDS011;54569;52.018;5.584;2022-08-04T14:45:28;3.13;;;2.30;;
67768;SDS011;54569;52.018;5.584;2022-08-04T14:47:55;2.58;;;1.90;;
67768;SDS011;54569;52.018;5.584;2022-08-04T14:50:31;2.53;;;1.85;;
67768;SDS011;54569;52.018;5.584;2022-08-04T14:53:11;2.20;;;2.00;;
67768;SDS011;54569;52.018;5.584;2022-08-04T14:55:43;2.45;;;1.50;;
67768;SDS011;54569;52.018;5.584;2022-08-04T14:58:24;4.78;;;1.90;;
67768;SDS011;54569;52.018;5.584;2022-08-04T15:00:52;3.95;;;1.70;;
67768;SDS011;54569;52.018;5.584;2022-08-04T15:03:23;4.03;;;1.90;;
67768;SDS011;54569;52.018;5.584;2022-08-04T15:05:50;2.08;;;1.60;;
67768;SDS011;54569;52.018;5.584;2022-08-04T15:08:16;3.33;;;1.90;;
67768;SDS011;54569;52.018;5.584;2022-08-04T15:10:42;2.70;;;1.60;;
67768;SDS011;54569;52.018;5.584;2022-08-04T15:13:09;3.70;;;1.60;;
67768;SDS011;54569;52.018;5.584;2022-08-04T15:15:40;3.28;;;1.52;;
67768;SDS011;54569;52.018;5.584;2022-08-04T15:18:10;3.13;;;1.67;;
67768;SDS011;54569;52.018;5.584;2022-08-04T15:20:37;2.92;;;1.90;;
67768;SDS011;54569;52.018;5.584;2022-08-04T15:23:04;2.80;;;1.60;;
67768;SDS011;54569;52.018;5.584;2022-08-04T15:25:34;2.67;;;1.70;;
67768;SDS011;54569;52.018;5.584;2022-08-04T15:28:02;1.85;;;1.60;;
67768;SDS011;54569;52.018;5.584;2022-08-04T15:30:29;4.70;;;1.60;;
67768;SDS011;54569;52.018;5.584;2022-08-04T15:32:56;1.75;;;1.65;;
67768;SDS011;54569;52.018;5.584;2022-08-04T15:35:26;2.35;;;1.75;;
67768;SDS011;54569;52.018;5.584;2022-08-04T15:38:02;2.95;;;1.98;;
67768;SDS011;54569;52.018;5.584;2022-08-04T15:45:52;1.63;;;1.52;;
67768;SDS011;54569;52.018;5.584;2022-08-04T15:53:23;3.08;;;1.90;;
67768;SDS011;54569;52.018;5.584;2022-08-04T15:59:07;5.07;;;1.85;;
67768;SDS011;54569;52.018;5.584;2022-08-04T16:01:32;2.25;;;1.52;;
67768;SDS011;54569;52.018;5.584;2022-08-04T16:03:58;3.58;;;1.52;;
67768;SDS011;54569;52.018;5.584;2022-08-04T16:16:44;1.70;;;1.58;;
67768;SDS011;54569;52.018;5.584;2022-08-04T16:21:58;2.10;;;1.20;;
67768;SDS011;54569;52.018;5.584;2022-08-04T16:24:29;3.10;;;1.55;;
67768;SDS011;54569;52.018;5.584;2022-08-04T16:27:03;4.05;;;1.70;;
67768;SDS011;54569;52.018;5.584;2022-08-04T16:34:35;3.53;;;1.40;;
67768;SDS011;54569;52.018;5.584;2022-08-04T16:37:30;4.15;;;1.60;;
67768;SDS011;54569;52.018;5.584;2022-08-04T16:42:53;2.35;;;1.40;;
67768;SDS011;54569;52.018;5.584;2022-08-04T16:48:11;2.95;;;1.50;;
67768;SDS011;54569;52.018;5.584;2022-08-04T16:51:00;2.15;;;1.42;;
67768;SDS011;54569;52.018;5.584;2022-08-04T16:53:40;4.60;;;1.95;;
67768;SDS011;54569;52.018;5.584;2022-08-04T16:56:10;3.13;;;1.70;;
67768;SDS011;54569;52.018;5.584;2022-08-04T16:58:38;3.45;;;1.48;;
67768;SDS011;54569;52.018;5.584;2022-08-04T17:01:06;4.18;;;1.70;;
67768;SDS011;54569;52.018;5.584;2022-08-04T17:03:34;4.20;;;1.50;;
67768;SDS011;54569;52.018;5.584;2022-08-04T17:06:13;5.88;;;1.50;;
67768;SDS011;54569;52.018;5.584;2022-08-04T17:08:39;2.95;;;1.60;;
67768;SDS011;54569;52.018;5.584;2022-08-04T17:11:05;2.30;;;1.40;;
67768;SDS011;54569;52.018;5.584;2022-08-04T17:13:38;3.25;;;1.50;;
67768;SDS011;54569;52.018;5.584;2022-08-04T17:16:06;4.18;;;1.60;;
67768;SDS011;54569;52.018;5.584;2022-08-04T17:18:37;2.95;;;1.45;;
67768;SDS011;54569;52.018;5.584;2022-08-04T17:21:06;4.03;;;2.05;;
67768;SDS011;54569;52.018;5.584;2022-08-04T17:23:35;3.15;;;1.60;;
67768;SDS011;54569;52.018;5.584;2022-08-04T17:26:25;1.95;;;1.30;;
67768;SDS011;54569;52.018;5.584;2022-08-04T17:28:55;3.63;;;1.70;;
67768;SDS011;54569;52.018;5.584;2022-08-04T17:31:25;3.92;;;1.52;;
67768;SDS011;54569;52.018;5.584;2022-08-04T17:33:57;2.08;;;1.33;;
67768;SDS011;54569;52.018;5.584;2022-08-04T17:36:29;3.53;;;1.35;;
67768;SDS011;54569;52.018;5.584;2022-08-04T17:39:00;1.85;;;1.40;;
67768;SDS011;54569;52.018;5.584;2022-08-04T17:41:34;2.80;;;1.40;;
67768;SDS011;54569;52.018;5.584;2022-08-04T17:44:00;2.80;;;1.35;;
67768;SDS011;54569;52.018;5.584;2022-08-04T17:46:34;1.88;;;1.20;;
67768;SDS011;54569;52.018;5.584;2022-08-04T17:49:06;3.47;;;1.48;;
67768;SDS011;54569;52.018;5.584;2022-08-04T17:51:34;3.67;;;1.50;;
67768;SDS011;54569;52.018;5.584;2022-08-04T17:54:00;3.03;;;1.40;;
67768;SDS011;54569;52.018;5.584;2022-08-04T17:56:27;2.58;;;1.42;;
67768;SDS011;54569;52.018;5.584;2022-08-04T17:59:04;1.40;;;1.10;;
67768;SDS011;54569;52.018;5.584;2022-08-04T18:01:42;3.03;;;1.50;;
67768;SDS011;54569;52.018;5.584;2022-08-04T18:06:54;1.58;;;1.38;;
67768;SDS011;54569;52.018;5.584;2022-08-04T18:09:27;2.00;;;1.30;;
67768;SDS011;54569;52.018;5.584;2022-08-04T18:11:58;2.78;;;1.30;;
67768;SDS011;54569;52.018;5.584;2022-08-04T18:14:26;2.15;;;1.40;;
67768;SDS011;54569;52.018;5.584;2022-08-04T18:17:00;1.65;;;1.42;;
67768;SDS011;54569;52.018;5.584;2022-08-04T18:19:26;3.42;;;1.30;;
67768;SDS011;54569;52.018;5.584;2022-08-04T18:21:52;3.42;;;1.45;;
67768;SDS011;54569;52.018;5.584;2022-08-04T18:24:18;3.00;;;1.60;;
67768;SDS011;54569;52.018;5.584;2022-08-04T18:26:44;3.80;;;1.35;;
67768;SDS011;54569;52.018;5.584;2022-08-04T18:29:13;1.55;;;1.30;;
67768;SDS011;54569;52.018;5.584;2022-08-04T18:31:39;14.07;;;12.30;;
67768;SDS011;54569;52.018;5.584;2022-08-04T18:34:05;2.17;;;1.15;;
67768;SDS011;54569;52.018;5.584;2022-08-04T18:36:32;1.35;;;1.15;;
67768;SDS011;54569;52.018;5.584;2022-08-04T18:39:03;1.75;;;1.25;;
67768;SDS011;54569;52.018;5.584;2022-08-04T18:41:30;2.30;;;1.27;;
67768;SDS011;54569;52.018;5.584;2022-08-04T18:43:57;2.17;;;1.23;;
67768;SDS011;54569;52.018;5.584;2022-08-04T18:46:23;2.05;;;1.40;;
67768;SDS011;54569;52.018;5.584;2022-08-04T18:48:49;3.13;;;1.40;;
67768;SDS011;54569;52.018;5.584;2022-08-04T18:51:17;4.60;;;1.60;;
67768;SDS011;54569;52.018;5.584;2022-08-04T18:53:43;2.63;;;1.50;;
67768;SDS011;54569;52.018;5.584;2022-08-04T18:56:10;1.83;;;1.33;;
67768;SDS011;54569;52.018;5.584;2022-08-04T18:58:36;4.03;;;1.50;;
67768;SDS011;54569;52.018;5.584;2022-08-04T19:01:01;3.67;;;1.80;;
67768;SDS011;54569;52.018;5.584;2022-08-04T19:03:27;2.65;;;1.73;;
67768;SDS011;54569;52.018;5.584;2022-08-04T19:05:53;4.10;;;1.60;;
67768;SDS011;54569;52.018;5.584;2022-08-04T19:08:19;4.25;;;1.60;;
67768;SDS011;54569;52.018;5.584;2022-08-04T19:10:45;2.85;;;1.60;;
67768;SDS011;54569;52.018;5.584;2022-08-04T19:13:10;3.10;;;1.63;;
67768;SDS011;54569;52.018;5.584;2022-08-04T19:15:36;4.00;;;1.80;;
67768;SDS011;54569;52.018;5.584;2022-08-04T19:18:05;5.15;;;1.73;;
67768;SDS011;54569;52.018;5.584;2022-08-04T19:20:30;2.17;;;1.45;;
67768;SDS011;54569;52.018;5.584;2022-08-04T19:22:56;3.95;;;1.90;;
67768;SDS011;54569;52.018;5.584;2022-08-04T19:25:22;2.53;;;1.80;;
67768;SDS011;54569;52.018;5.584;2022-08-04T19:27:47;4.10;;;2.00;;
67768;SDS011;54569;52.018;5.584;2022-08-04T19:30:13;2.65;;;1.80;;
67768;SDS011;54569;52.018;5.584;2022-08-04T19:32:38;5.80;;;2.30;;
67768;SDS011;54569;52.018;5.584;2022-08-04T19:35:06;2.42;;;1.90;;